Erwin, TN (37650)

8:23 PM EDT on August 27, 2015 (GMT -0400)
Erwin | | Change Station
CLOSE
Current Station
Personal Weather Station
Location: Erwin, TN
Elevation: 1923 ft
Nearby Weather Stations

Elev 1923 ft 36.15 °N, 82.40 °W | Updated 16 seconds ago

Mostly Cloudy
Mostly Cloudy
71.4 °F
Feels Like 73 °F
N
0.0
Wind Variable Wind from East
Gusts 0.0 mph

Today
High -- | Low -- °F
--% Chance of Precip.
Yesterday
High -- | Low -- °F
Precip. -- in
6:57 AM 8:04 PM
Waxing Gibbous, 95% visible
Pressure 30.10 in
Visibility 10.0 miles
Clouds Mostly Cloudy 6000 ft
Overcast 7000 ft
Heat Index 73 °F
Dew Point 63 °F
Humidity 74%
Rainfall 0.00 in
Snow Depth Not available.
UV 0 out of 12
Pollen 8.10 out of 12
Air Quality Not available.
Flu Activity Not available.
METAR K0A9 280015Z AUTO 00000KT 10SM BKN060 OVC070 21/16 A3010 RMK
Pressure 30.10 in
Visibility 10.0 miles
Clouds Mostly Cloudy 6000 ft
Overcast 7000 ft
Heat Index 73 °F
Dew Point 63 °F
Humidity 74%
Rainfall 0.00 in
Snow Depth Not available.
UV 0 out of 12
Pollen 8.10 out of 12
Air Quality Not available.
Flu Activity Not available.
METAR K0A9 280015Z AUTO 00000KT 10SM BKN060 OVC070 21/16 A3010 RMK

10-Day Weather Forecast

×

Almanac

Astronomy

Aug. 27, 2015 Rise Set
Actual Time
Civil Twilight
Nautical Twilight
Astronomical Twilight
Moon
Length of Visible Light
Length of Day
Tomorrow will be .
, % of the Moon is Illuminated

Today's Extremes

State Highs State Lows

Community

WunderPhotos

Upload Photos

1,850,272 photos uploaded!

WunderBlogs® & News

Nearby

Air Quality

  Air Quality AQ Index Pollutant
Not available.

Snow Depth

Station Depth Elevation

Earthquake Activity

City Distance Mag. Time & Date
Minimum magnitude displayed is 2.5.

Coastal Water Temperatures

Place Temperature

Stations

Nearby Weather Stations

Station Location Temp. Windchill Dew Point Humidity Wind Precip. Elev Updated Type